Time;durP1;ratioP1;P1;durP2;ratioP2;P2;SDS_P1;SDS_P2;PMS_P1;PMS_P2;Temp;Humidity;BMP_temperature;BMP_pressure;BME280_temperature;BME280_humidity;BME280_pressure;Samples;Min_cycle;Max_cycle;Signal;HPM_P1;HPM_P2
2023/10/25 00:03:31;;;;;;;4.93;4.60;;;15.60;49.50;;;;;;10390935;28;20230;-73
2023/10/25 00:08:34;;;;;;;4.97;4.67;;;15.60;49.10;;;;;;10390703;28;20320;-73
2023/10/25 00:13:39;;;;;;;5.23;4.73;;;15.60;49.20;;;;;;10384997;28;20268;-73
2023/10/25 00:18:42;;;;;;;5.67;4.90;;;15.60;49.40;;;;;;10385825;28;20234;-73
2023/10/25 00:23:45;;;;;;;5.20;4.80;;;15.50;48.90;;;;;;10383692;28;20751;-73
2023/10/25 00:28:52;;;;;;;5.53;5.23;;;15.50;48.90;;;;;;10389839;28;20329;-73
2023/10/25 00:33:55;;;;;;;6.13;5.70;;;15.40;49.30;;;;;;10388485;28;20643;-74
2023/10/25 00:38:58;;;;;;;5.37;4.97;;;15.40;49.10;;;;;;10388313;28;20238;-73
2023/10/25 00:44:03;;;;;;;5.97;5.47;;;15.30;49.20;;;;;;10388083;28;20268;-74
2023/10/25 00:49:08;;;;;;;6.23;5.77;;;15.30;49.50;;;;;;10385893;28;20230;-74
2023/10/25 00:54:11;;;;;;;6.00;5.53;;;15.30;49.50;;;;;;10390637;28;20236;-74
2023/10/25 00:59:18;;;;;;;6.43;5.93;;;15.30;49.20;;;;;;10389994;28;20787;-74
2023/10/25 01:04:22;;;;;;;6.10;5.70;;;15.40;49.50;;;;;;10388129;28;20717;-74
2023/10/25 01:09:25;;;;;;;7.30;6.70;;;15.40;49.00;;;;;;10379993;28;20248;-74
2023/10/25 01:14:31;;;;;;;6.77;6.37;;;15.40;49.00;;;;;;10384784;28;20268;-77
2023/10/25 01:19:34;;;;;;;7.70;7.20;;;15.30;49.20;;;;;;10387978;28;20312;-77
2023/10/25 01:24:39;;;;;;;7.20;6.60;;;15.30;48.70;;;;;;10379754;28;20229;-77
2023/10/25 01:29:42;;;;;;;7.57;7.07;;;15.30;49.00;;;;;;10395913;28;20775;-77
2023/10/25 01:34:45;;;;;;;8.07;7.47;;;15.30;48.80;;;;;;10392661;28;20779;-77
2023/10/25 01:39:50;;;;;;;7.10;6.50;;;15.30;48.80;;;;;;10392663;28;20326;-77
2023/10/25 01:44:53;;;;;;;7.20;6.70;;;15.10;49.00;;;;;;10399862;28;20669;-77
2023/10/25 01:49:56;;;;;;;7.50;7.00;;;15.10;49.00;;;;;;10386548;28;20734;-76
2023/10/25 01:55:01;;;;;;;7.80;7.20;;;15.10;49.00;;;;;;10398208;28;20218;-77
2023/10/25 02:00:06;;;;;;;6.90;6.40;;;15.00;48.90;;;;;;10396116;28;20331;-76
2023/10/25 02:05:09;;;;;;;7.87;7.27;;;15.10;48.90;;;;;;10389170;28;20329;-77
2023/10/25 02:10:14;;;;;;;5.67;5.27;;;15.10;48.70;;;;;;10398240;28;20248;-73
2023/10/25 02:15:17;;;;;;;6.63;6.07;;;15.10;48.70;;;;;;10397657;28;20259;-75
2023/10/25 02:20:20;;;;;;;6.77;6.30;;;15.10;48.50;;;;;;10396598;28;20226;-75
2023/10/25 02:25:25;;;;;;;6.47;5.93;;;15.10;48.30;;;;;;10392932;28;20316;-75
2023/10/25 02:30:28;;;;;;;7.30;6.80;;;15.10;48.30;;;;;;10385890;28;20314;-75
2023/10/25 02:35:32;;;;;;;6.90;6.40;;;15.00;48.10;;;;;;10389548;28;20308;-75
2023/10/25 02:40:38;;;;;;;5.30;5.00;;;15.00;48.00;;;;;;10383764;28;20234;-75
2023/10/25 02:45:41;;;;;;;5.17;4.77;;;14.90;47.90;;;;;;10394958;28;20298;-73
2023/10/25 02:50:44;;;;;;;5.80;5.40;;;14.90;47.90;;;;;;10394436;28;20257;-74
2023/10/25 02:55:49;;;;;;;7.23;6.73;;;14.90;47.70;;;;;;10388791;28;20226;-77
2023/10/25 03:00:52;;;;;;;6.30;5.80;;;14.90;47.70;;;;;;10385715;28;20230;-76
2023/10/25 03:05:55;;;;;;;7.10;6.50;;;14.90;47.50;;;;;;10388766;28;20826;-77
2023/10/25 03:11:00;;;;;;;6.00;5.60;;;14.80;47.50;;;;;;10389184;28;20616;-76
2023/10/25 03:16:04;;;;;;;6.07;5.67;;;14.80;47.60;;;;;;10387442;28;20268;-75
2023/10/25 03:21:07;;;;;;;6.43;5.93;;;14.80;47.70;;;;;;10388097;28;20606;-74
2023/10/25 03:26:13;;;;;;;5.73;5.23;;;14.80;47.70;;;;;;10387679;28;20240;-74
2023/10/25 03:31:17;;;;;;;6.10;5.70;;;14.80;47.70;;;;;;10392643;28;20233;-75
2023/10/25 03:36:20;;;;;;;5.40;5.00;;;14.80;47.50;;;;;;10394610;28;20637;-73
2023/10/25 03:41:25;;;;;;;4.80;4.50;;;14.70;47.30;;;;;;10389299;28;20253;-74
2023/10/25 03:46:28;;;;;;;6.70;6.20;;;14.80;47.20;;;;;;10386120;28;20267;-75
2023/10/25 03:51:32;;;;;;;6.80;5.90;;;14.70;46.90;;;;;;10392835;28;20312;-75
2023/10/25 03:56:42;;;;;;;4.83;4.53;;;14.70;46.70;;;;;;10386045;28;20225;-73
2023/10/25 04:01:45;;;;;;;5.83;5.43;;;14.60;46.30;;;;;;10386695;28;20232;-74
2023/10/25 04:06:48;;;;;;;4.73;4.43;;;14.60;46.30;;;;;;10389806;28;20233;-75
2023/10/25 04:11:53;;;;;;;5.63;5.23;;;14.50;46.10;;;;;;10381361;28;20363;-74
2023/10/25 04:16:56;;;;;;;5.90;5.50;;;14.50;46.00;;;;;;10384255;28;20737;-74
2023/10/25 04:22:01;;;;;;;6.00;5.47;;;14.40;45.90;;;;;;10390172;28;20233;-74
2023/10/25 04:27:06;;;;;;;5.57;5.07;;;14.30;45.80;;;;;;10390386;28;20233;-74
2023/10/25 04:32:09;;;;;;;5.40;5.00;;;14.30;45.70;;;;;;10384942;28;20238;-74
2023/10/25 04:37:13;;;;;;;4.37;4.07;;;14.20;45.80;;;;;;10383719;28;20234;-74
2023/10/25 04:42:18;;;;;;;4.57;4.17;;;14.20;45.80;;;;;;10372421;28;20241;-74
2023/10/25 04:47:21;;;;;;;5.07;4.77;;;14.10;45.60;;;;;;10379493;28;20233;-74
2023/10/25 04:52:24;;;;;;;7.07;6.57;;;14.00;45.60;;;;;;10379731;28;20229;-73
2023/10/25 04:57:29;;;;;;;6.17;5.67;;;14.00;45.40;;;;;;10385893;28;20793;-74
2023/10/25 05:02:33;;;;;;;6.57;6.07;;;13.90;45.50;;;;;;10381643;28;20255;-73
2023/10/25 05:07:37;;;;;;;6.53;6.03;;;13.80;45.90;;;;;;10389089;28;20321;-73
2023/10/25 05:12:44;;;;;;;6.23;4.67;;;13.70;46.00;;;;;;10388628;28;20241;-73
2023/10/25 05:17:48;;;;;;;7.33;6.63;;;13.70;47.20;;;;;;10388247;28;20718;-73
2023/10/25 05:22:53;;;;;;;9.57;8.77;;;13.80;47.30;;;;;;10384462;28;20287;-73
2023/10/25 05:27:59;;;;;;;9.03;8.23;;;13.80;46.40;;;;;;10385671;28;21196;-74
2023/10/25 05:33:06;;;;;;;8.87;8.03;;;13.70;47.10;;;;;;10379355;28;20231;-73
2023/10/25 05:38:10;;;;;;;8.93;8.23;;;13.70;46.40;;;;;;10384727;28;20692;-73
2023/10/25 05:43:16;;;;;;;9.10;8.33;;;13.70;46.40;;;;;;10386347;28;20317;-73
2023/10/25 05:48:19;;;;;;;8.17;7.53;;;13.60;46.10;;;;;;10387544;28;20242;-74
2023/10/25 05:53:23;;;;;;;9.17;8.37;;;13.70;46.20;;;;;;10380146;28;20230;-73
2023/10/25 05:58:28;;;;;;;9.50;8.60;;;13.60;45.90;;;;;;10379933;28;20226;-73
2023/10/25 06:03:32;;;;;;;22.07;8.80;;;13.60;45.60;;;;;;10383927;28;20604;-73
2023/10/25 06:08:35;;;;;;;7.30;6.50;;;13.60;45.40;;;;;;10384641;28;20748;-73
2023/10/25 06:13:40;;;;;;;9.37;6.13;;;13.50;45.40;;;;;;10386118;28;20794;-73
2023/10/25 06:18:44;;;;;;;5.60;5.20;;;13.40;45.00;;;;;;10382295;28;20277;-74
2023/10/25 06:23:47;;;;;;;7.40;6.80;;;13.40;45.40;;;;;;10383746;28;21110;-74
2023/10/25 06:28:51;;;;;;;6.97;6.37;;;13.30;45.60;;;;;;10384835;28;20981;-74
2023/10/25 06:33:55;;;;;;;22.67;9.20;;;13.30;45.70;;;;;;10388178;28;20248;-75
2023/10/25 06:39:04;;;;;;;8.53;7.73;;;13.30;45.60;;;;;;10385899;28;20312;-76
2023/10/25 06:44:10;;;;;;;11.87;10.67;;;13.30;45.70;;;;;;10381477;28;20224;-75
2023/10/25 06:49:13;;;;;;;13.80;9.10;;;13.20;45.80;;;;;;10397985;28;20229;-75
2023/10/25 06:54:17;;;;;;;15.23;7.57;;;13.20;46.00;;;;;;10394559;28;20230;-74
2023/10/25 06:59:22;;;;;;;14.80;8.53;;;13.20;46.10;;;;;;10387785;28;20222;-75
2023/10/25 07:04:28;;;;;;;17.63;6.73;;;13.20;46.20;;;;;;10392077;28;20332;-75
2023/10/25 07:09:32;;;;;;;52.77;6.30;;;13.10;46.30;;;;;;10387011;28;20241;-75
2023/10/25 07:14:37;;;;;;;50.03;6.67;;;13.00;46.60;;;;;;10389729;28;20239;-75
2023/10/25 07:19:43;;;;;;;8.43;5.87;;;13.00;46.90;;;;;;10387631;28;20311;-75
2023/10/25 07:24:46;;;;;;;32.67;6.23;;;12.90;47.00;;;;;;10388240;28;20240;-75
2023/10/25 07:29:51;;;;;;;26.80;6.87;;;12.90;47.20;;;;;;10392900;28;20234;-75
2023/10/25 07:34:54;;;;;;;37.50;8.10;;;12.80;47.40;;;;;;10388848;28;20778;-75
2023/10/25 07:39:57;;;;;;;8.93;8.13;;;12.80;47.30;;;;;;10385905;28;20226;-75
2023/10/25 07:45:02;;;;;;;16.40;7.37;;;12.80;47.40;;;;;;10391173;28;20233;-75
2023/10/25 07:50:06;;;;;;;7.50;6.90;;;12.80;48.00;;;;;;10385775;28;20795;-75
2023/10/25 07:55:10;;;;;;;28.50;7.90;;;12.90;48.00;;;;;;10388814;28;20240;-75
2023/10/25 08:00:35;;;;;;;14.23;7.77;;;12.90;48.00;;;;;;10383604;28;20238;-75
2023/10/25 08:05:38;;;;;;;7.50;6.90;;;13.00;48.20;;;;;;10394787;28;20275;-75
2023/10/25 08:10:41;;;;;;;11.70;7.50;;;13.10;48.20;;;;;;10390500;28;20316;-75
2023/10/25 08:15:45;;;;;;;6.87;6.20;;;13.10;48.60;;;;;;10384652;28;20233;-75
2023/10/25 08:20:52;;;;;;;6.90;6.40;;;13.20;49.10;;;;;;10383287;28;20738;-75
2023/10/25 08:25:59;;;;;;;6.87;6.27;;;13.30;48.90;;;;;;10394153;28;20753;-74
2023/10/25 08:31:12;;;;;;;8.13;7.43;;;13.40;49.30;;;;;;10389447;28;20313;-75
2023/10/25 08:36:15;;;;;;;7.03;6.53;;;13.60;51.00;;;;;;10388627;28;20222;-75
2023/10/25 08:41:20;;;;;;;7.37;6.77;;;13.70;50.30;;;;;;10392317;28;20229;-75
2023/10/25 08:46:26;;;;;;;6.63;6.13;;;13.90;51.00;;;;;;10387665;28;20299;-74
2023/10/25 08:51:30;;;;;;;7.23;6.70;;;14.20;51.30;;;;;;10389624;28;20229;-75
2023/10/25 08:56:33;;;;;;;6.60;6.10;;;14.40;51.50;;;;;;10389998;28;20313;-75
2023/10/25 09:01:37;;;;;;;5.43;4.93;;;14.70;51.70;;;;;;10383877;28;20883;-74
2023/10/25 09:06:45;;;;;;;4.97;4.57;;;15.00;52.20;;;;;;10379526;28;20268;-74
2023/10/25 09:11:49;;;;;;;4.77;4.43;;;15.30;51.50;;;;;;10390610;28;20265;-74
2023/10/25 09:16:54;;;;;;;2.60;2.40;;;15.60;51.50;;;;;;10388721;28;20214;-74
2023/10/25 09:21:57;;;;;;;2.73;2.47;;;15.90;49.90;;;;;;10386964;28;20231;-74
2023/10/25 09:27:08;;;;;;;2.33;2.20;;;16.00;49.60;;;;;;10393076;28;20263;-74
2023/10/25 09:32:12;;;;;;;1.60;1.50;;;16.20;48.70;;;;;;10381869;28;20228;-74
2023/10/25 09:37:16;;;;;;;1.70;1.60;;;16.40;48.90;;;;;;10385911;28;20230;-74
2023/10/25 09:42:25;;;;;;;1.70;1.60;;;16.70;49.00;;;;;;10389339;28;20314;-74
2023/10/25 09:47:35;;;;;;;2.07;1.40;;;16.90;48.30;;;;;;10393872;28;21652;-74
2023/10/25 09:52:40;;;;;;;1.80;1.40;;;17.10;46.80;;;;;;10388370;28;20225;-74
2023/10/25 09:57:44;;;;;;;1.90;1.70;;;17.30;46.40;;;;;;10392289;28;20214;-74
2023/10/25 10:03:03;;;;;;;1.87;1.77;;;17.50;46.70;;;;;;10394644;28;20230;-74
2023/10/25 10:08:14;;;;;;;2.13;2.00;;;17.70;46.80;;;;;;10396081;28;20267;-74
2023/10/25 10:13:19;;;;;;;1.70;1.57;;;17.80;45.60;;;;;;10394608;28;20249;-74
2023/10/25 10:18:27;;;;;;;1.60;1.50;;;18.00;46.20;;;;;;10395966;28;20658;-74
2023/10/25 10:23:38;;;;;;;1.70;1.60;;;18.10;45.50;;;;;;10393561;28;20237;-75
2023/10/25 10:28:42;;;;;;;2.03;1.90;;;18.20;43.30;;;;;;10392137;28;20720;-74
2023/10/25 10:33:48;;;;;;;1.93;1.83;;;18.30;44.80;;;;;;10391059;28;20789;-74
2023/10/25 10:39:10;;;;;;;2.30;2.10;;;18.40;44.80;;;;;;10398314;28;20218;-74
2023/10/25 10:44:14;;;;;;;2.20;2.10;;;18.50;43.80;;;;;;10395684;28;20595;-74
2023/10/25 10:49:20;;;;;;;1.80;1.70;;;18.70;44.50;;;;;;10391381;28;20229;-74
2023/10/25 10:54:23;;;;;;;1.80;1.70;;;18.60;43.60;;;;;;10392958;28;20230;-74
2023/10/25 10:59:28;;;;;;;2.00;1.80;;;18.60;43.90;;;;;;10382743;28;20308;-74
2023/10/25 11:04:33;;;;;;;1.70;1.60;;;18.60;44.70;;;;;;10386799;28;20299;-75
2023/10/25 11:09:37;;;;;;;2.30;1.30;;;18.60;43.60;;;;;;10393642;28;20747;-74
2023/10/25 11:14:41;;;;;;;1.80;1.60;;;18.60;44.30;;;;;;10387147;28;20276;-74
2023/10/25 11:19:47;;;;;;;3.37;3.07;;;18.60;44.20;;;;;;10397126;28;21079;-74
2023/10/25 11:24:52;;;;;;;3.40;3.10;;;18.70;43.90;;;;;;10390386;28;20229;-74
2023/10/25 11:29:55;;;;;;;2.00;1.90;;;18.70;43.70;;;;;;10390131;28;20232;-73
2023/10/25 11:35:00;;;;;;;1.50;1.40;;;18.70;44.20;;;;;;10388998;28;20225;-74
2023/10/25 11:40:03;;;;;;;1.33;1.27;;;18.80;43.60;;;;;;10393342;28;20226;-73
2023/10/25 11:45:08;;;;;;;1.63;1.53;;;18.80;43.70;;;;;;10391434;28;20255;-74
2023/10/25 11:50:12;;;;;;;1.57;1.40;;;18.90;43.70;;;;;;10391864;28;20237;-74
2023/10/25 11:55:16;;;;;;;1.47;1.37;;;18.90;42.90;;;;;;10381527;28;20226;-77
2023/10/25 12:00:20;;;;;;;1.20;1.20;;;18.90;43.60;;;;;;10381622;28;20320;-77
2023/10/25 12:05:26;;;;;;;1.23;1.20;;;19.00;43.60;;;;;;10384323;28;20244;-77
2023/10/25 12:10:30;;;;;;;1.40;1.40;;;19.00;43.10;;;;;;10382528;28;20240;-77
2023/10/25 12:15:33;;;;;;;1.43;1.33;;;19.00;43.80;;;;;;10385534;28;20222;-75
2023/10/25 12:20:38;;;;;;;3.30;3.00;;;19.00;43.60;;;;;;10382039;28;20228;-75
2023/10/25 12:25:41;;;;;;;1.50;1.40;;;19.10;43.00;;;;;;10379306;28;20226;-75
2023/10/25 12:30:44;;;;;;;1.40;1.30;;;19.10;43.00;;;;;;10383560;28;20233;-75
2023/10/25 12:35:49;;;;;;;1.60;1.50;;;19.20;42.90;;;;;;10383756;28;20311;-75
2023/10/25 12:40:52;;;;;;;2.43;1.93;;;19.20;42.20;;;;;;10382429;28;20751;-75
2023/10/25 12:45:57;;;;;;;1.57;1.47;;;19.20;42.90;;;;;;10386479;28;20711;-75
2023/10/25 12:51:01;;;;;;;1.60;1.50;;;19.30;42.70;;;;;;10382569;28;20449;-74
2023/10/25 12:56:05;;;;;;;1.20;1.10;;;19.30;42.20;;;;;;10385001;28;20229;-75
2023/10/25 13:01:08;;;;;;;0.80;0.80;;;19.40;42.40;;;;;;10386243;28;20316;-75
2023/10/25 13:06:13;;;;;;;0.70;0.70;;;19.40;42.60;;;;;;10383214;28;20233;-75
2023/10/25 13:11:16;;;;;;;0.73;0.73;;;19.50;41.60;;;;;;10382136;28;20249;-75
2023/10/25 13:16:20;;;;;;;0.90;0.90;;;19.50;41.90;;;;;;10383293;28;20778;-74
2023/10/25 13:21:25;;;;;;;5.53;3.83;;;19.60;42.00;;;;;;10391260;28;20240;-74
2023/10/25 13:26:28;;;;;;;1.50;1.10;;;19.60;41.00;;;;;;10389420;28;20226;-75
2023/10/25 13:31:32;;;;;;;1.57;0.90;;;19.60;41.50;;;;;;10387731;28;20301;-74
2023/10/25 13:36:37;;;;;;;0.70;0.70;;;19.70;41.50;;;;;;10391378;28;20230;-74
2023/10/25 13:41:41;;;;;;;0.93;0.60;;;19.60;41.10;;;;;;10388528;28;20256;-74
2023/10/25 13:46:44;;;;;;;0.60;0.60;;;19.70;41.10;;;;;;10383675;28;20225;-74
2023/10/25 13:51:50;;;;;;;0.50;0.50;;;19.70;41.10;;;;;;10386125;28;20637;-74
2023/10/25 13:56:53;;;;;;;1.13;0.50;;;19.80;40.50;;;;;;10391408;28;20263;-74
2023/10/25 14:01:56;;;;;;;0.50;0.50;;;19.80;40.90;;;;;;10388998;28;20234;-73
2023/10/25 14:07:03;;;;;;;0.60;0.60;;;19.90;40.70;;;;;;10386633;28;20226;-74
2023/10/25 14:12:08;;;;;;;0.70;0.70;;;20.00;39.90;;;;;;10386173;28;20232;-74
2023/10/25 14:17:11;;;;;;;1.10;1.10;;;20.00;40.00;;;;;;10386695;28;20226;-74
2023/10/25 14:22:16;;;;;;;1.40;1.30;;;20.10;40.40;;;;;;10382654;28;20229;-78
2023/10/25 14:27:19;;;;;;;0.90;0.90;;;20.00;39.80;;;;;;10389131;28;20233;-73
2023/10/25 14:32:22;;;;;;;0.80;0.80;;;20.00;40.20;;;;;;10388416;28;20241;-72
2023/10/25 14:37:29;;;;;;;0.93;0.80;;;20.00;40.10;;;;;;10385313;28;20236;-72
2023/10/25 14:42:33;;;;;;;0.60;0.60;;;19.90;39.60;;;;;;10389657;28;20311;-73
2023/10/25 14:47:36;;;;;;;0.80;0.80;;;19.90;40.20;;;;;;10389561;28;20229;-73
2023/10/25 14:52:43;;;;;;;1.07;1.07;;;19.90;40.10;;;;;;10386893;28;20240;-72
2023/10/25 14:57:46;;;;;;;1.03;0.83;;;19.90;39.80;;;;;;10390424;28;20600;-72
2023/10/25 15:02:51;;;;;;;2.80;2.60;;;19.90;39.90;;;;;;10390443;28;20571;-72
2023/10/25 15:07:57;;;;;;;1.20;1.20;;;19.90;39.80;;;;;;10390002;28;20324;-72
2023/10/25 15:13:00;;;;;;;1.43;1.33;;;19.90;39.60;;;;;;10385326;28;20233;-72
2023/10/25 15:18:04;;;;;;;1.50;1.40;;;19.90;40.00;;;;;;10382909;28;20696;-73
2023/10/25 15:23:09;;;;;;;1.87;1.40;;;19.80;40.40;;;;;;10387855;28;20237;-73
2023/10/25 15:28:12;;;;;;;2.00;1.80;;;19.80;39.40;;;;;;10384477;28;20234;-74
2023/10/25 15:33:15;;;;;;;2.70;2.50;;;19.70;40.30;;;;;;10391647;28;20255;-76
2023/10/25 15:38:20;;;;;;;1.70;1.60;;;19.70;39.90;;;;;;10388837;28;20880;-76
2023/10/25 15:43:23;;;;;;;1.63;1.53;;;19.60;39.50;;;;;;10386797;28;20237;-76
2023/10/25 15:48:27;;;;;;;1.20;1.10;;;19.50;39.60;;;;;;10387739;28;20230;-76
2023/10/25 15:53:32;;;;;;;1.40;1.30;;;19.40;40.10;;;;;;10382022;28;20226;-75
2023/10/25 15:58:37;;;;;;;1.20;1.20;;;19.30;40.00;;;;;;10386996;28;20229;-76
2023/10/25 16:03:42;;;;;;;2.50;1.70;;;19.30;40.30;;;;;;10391506;28;20229;-76
2023/10/25 16:08:51;;;;;;;1.90;1.80;;;19.30;40.40;;;;;;10386563;28;20245;-76
2023/10/25 16:13:54;;;;;;;1.70;1.60;;;19.30;40.80;;;;;;10388805;28;20233;-76
2023/10/25 16:18:57;;;;;;;1.50;1.40;;;19.30;41.10;;;;;;10390111;28;20647;-76
2023/10/25 16:24:03;;;;;;;1.50;1.40;;;19.20;41.10;;;;;;10386746;28;21125;-75
2023/10/25 16:29:07;;;;;;;3.17;2.10;;;19.20;40.90;;;;;;10387525;28;20240;-75
2023/10/25 16:34:14;;;;;;;2.40;1.37;;;19.10;40.60;;;;;;10384267;28;20230;-76
2023/10/25 16:39:19;;;;;;;1.30;1.20;;;18.90;40.70;;;;;;10382631;28;20217;-76
2023/10/25 16:44:23;;;;;;;1.40;1.30;;;18.60;40.90;;;;;;10382395;28;20230;-76
2023/10/25 16:49:26;;;;;;;1.57;1.47;;;18.50;41.40;;;;;;10387009;28;20783;-76
2023/10/25 16:54:32;;;;;;;1.57;1.17;;;18.30;41.80;;;;;;10384280;28;20229;-76
2023/10/25 16:59:35;;;;;;;1.73;1.63;;;18.10;42.00;;;;;;10383377;28;20221;-76
2023/10/25 17:04:38;;;;;;;1.70;1.60;;;18.10;42.10;;;;;;10383355;28;20229;-73
2023/10/25 17:09:44;;;;;;;1.77;1.20;;;17.90;42.20;;;;;;10378497;28;20315;-73
2023/10/25 17:14:49;;;;;;;2.60;2.20;;;17.80;42.70;;;;;;10384123;28;20221;-73
2023/10/25 17:19:52;;;;;;;2.27;2.10;;;17.60;42.50;;;;;;10388647;28;20301;-73
2023/10/25 17:24:57;;;;;;;2.47;2.03;;;17.60;43.00;;;;;;10386358;28;20225;-73
2023/10/25 17:30:00;;;;;;;3.77;3.47;;;17.60;43.30;;;;;;10383648;28;20232;-73
2023/10/25 17:35:05;;;;;;;3.70;3.07;;;17.60;43.00;;;;;;10380745;28;20275;-73
2023/10/25 17:40:11;;;;;;;2.90;2.60;;;17.60;43.00;;;;;;10380760;28;20242;-74
2023/10/25 17:45:14;;;;;;;2.30;2.10;;;17.50;43.30;;;;;;10383349;28;21573;-73
2023/10/25 17:50:18;;;;;;;1.70;1.60;;;17.50;43.00;;;;;;10384956;28;20226;-73
2023/10/25 17:55:22;;;;;;;1.33;1.20;;;17.50;43.20;;;;;;10385508;28;20267;-73
2023/10/25 18:00:26;;;;;;;1.10;1.10;;;17.50;43.40;;;;;;10382679;28;20241;-74
2023/10/25 18:05:30;;;;;;;2.30;2.10;;;17.50;43.30;;;;;;10393093;28;20312;-73
2023/10/25 18:10:39;;;;;;;2.40;2.20;;;17.50;43.50;;;;;;10389323;28;20352;-74
2023/10/25 18:15:42;;;;;;;2.37;1.47;;;17.40;43.30;;;;;;10392890;28;20222;-73
2023/10/25 18:20:47;;;;;;;3.20;1.73;;;17.40;43.30;;;;;;10385738;28;20241;-74
2023/10/25 18:25:52;;;;;;;1.77;1.67;;;17.30;43.40;;;;;;10388096;28;20249;-73
2023/10/25 18:30:58;;;;;;;1.93;1.83;;;17.30;43.60;;;;;;10388193;28;20227;-73
2023/10/25 18:36:21;;;;;;;2.63;1.67;;;17.30;43.30;;;;;;10387021;28;20229;-73
2023/10/25 18:41:26;;;;;;;1.23;1.13;;;17.30;43.30;;;;;;10387477;28;20230;-73
2023/10/25 18:46:29;;;;;;;1.33;1.30;;;17.20;43.50;;;;;;10392315;28;20741;-73
2023/10/25 18:51:32;;;;;;;1.50;1.40;;;17.10;43.40;;;;;;10386567;28;20287;-73
2023/10/25 18:56:37;;;;;;;2.33;1.23;;;17.00;43.60;;;;;;10383230;28;20237;-73
2023/10/25 19:01:41;;;;;;;1.57;1.47;;;17.00;44.00;;;;;;10367402;28;20230;-73
2023/10/25 19:06:44;;;;;;;1.30;1.20;;;16.90;43.80;;;;;;10387171;28;20226;-73
2023/10/25 19:11:54;;;;;;;1.80;1.17;;;16.80;43.80;;;;;;10385718;28;21041;-71
2023/10/25 19:16:57;;;;;;;1.10;1.00;;;16.70;44.80;;;;;;10383801;28;20245;-71
2023/10/25 19:22:00;;;;;;;1.10;1.00;;;16.70;44.00;;;;;;10381599;28;20322;-71
2023/10/25 19:27:07;;;;;;;1.20;1.20;;;16.60;43.90;;;;;;10380447;28;20816;-71
2023/10/25 19:32:11;;;;;;;2.27;1.40;;;16.60;44.10;;;;;;10380528;28;20236;-71
2023/10/25 19:37:14;;;;;;;2.97;1.40;;;16.50;44.00;;;;;;10382209;28;20233;-71
2023/10/25 19:42:19;;;;;;;1.57;1.40;;;16.40;44.10;;;;;;10383221;28;20945;-71
2023/10/25 19:47:22;;;;;;;1.90;0.90;;;16.40;44.70;;;;;;10383526;28;20238;-71
2023/10/25 19:52:27;;;;;;;0.80;0.80;;;16.30;44.20;;;;;;10379510;28;20222;-71
2023/10/25 19:57:31;;;;;;;1.83;1.30;;;16.30;44.70;;;;;;10378832;28;20217;-71
2023/10/25 20:02:34;;;;;;;1.57;1.20;;;16.40;44.90;;;;;;10376708;28;20872;-71
2023/10/25 20:07:39;;;;;;;1.43;0.93;;;16.30;44.60;;;;;;10384867;28;20248;-71
2023/10/25 20:12:43;;;;;;;0.80;0.80;;;16.20;45.00;;;;;;10385209;28;20666;-70
2023/10/25 20:17:47;;;;;;;2.77;0.80;;;16.00;45.20;;;;;;10378532;28;20240;-71
2023/10/25 20:22:50;;;;;;;1.10;0.70;;;15.90;45.10;;;;;;10382302;28;20261;-71
2023/10/25 20:27:55;;;;;;;0.63;0.63;;;15.80;45.00;;;;;;10371551;28;20233;-71
2023/10/25 20:32:58;;;;;;;0.80;0.80;;;15.60;44.70;;;;;;10380193;28;20236;-71
2023/10/25 20:38:02;;;;;;;1.10;0.80;;;15.50;44.20;;;;;;10381098;28;20926;-71
2023/10/25 20:43:06;;;;;;;0.73;0.73;;;15.40;44.40;;;;;;10376522;28;20249;-71
2023/10/25 20:48:12;;;;;;;0.70;0.70;;;15.30;44.60;;;;;;10378836;28;20960;-71
2023/10/25 20:53:15;;;;;;;2.17;0.70;;;15.30;44.60;;;;;;10368715;28;20240;-71
2023/10/25 20:58:20;;;;;;;0.60;0.60;;;15.30;44.60;;;;;;10376357;28;20252;-71
2023/10/25 21:03:23;;;;;;;0.60;0.60;;;15.30;44.60;;;;;;10379228;28;20871;-71
2023/10/25 21:08:26;;;;;;;1.50;0.70;;;15.20;44.50;;;;;;10377736;28;20638;-71
2023/10/25 21:13:31;;;;;;;0.50;0.50;;;15.20;44.50;;;;;;10379755;28;20233;-70
2023/10/25 21:18:34;;;;;;;0.60;0.60;;;15.20;44.50;;;;;;10376494;28;20340;-70
2023/10/25 21:23:40;;;;;;;0.70;0.70;;;15.20;44.50;;;;;;10378161;28;20241;-71
2023/10/25 21:28:45;;;;;;;0.80;0.67;;;15.20;44.50;;;;;;10377881;28;20230;-71
2023/10/25 21:33:49;;;;;;;0.50;0.50;;;15.20;44.50;;;;;;10377910;28;20882;-75
2023/10/25 21:38:52;;;;;;;1.50;0.70;;;15.20;44.50;;;;;;10384332;28;20246;-71
2023/10/25 21:43:57;;;;;;;1.43;0.80;;;15.10;44.40;;;;;;10386385;28;20764;-71
2023/10/25 21:49:01;;;;;;;0.40;0.40;;;15.10;44.40;;;;;;10385910;28;20228;-71
2023/10/25 21:54:05;;;;;;;0.47;0.47;;;15.20;44.50;;;;;;10385764;28;20317;-71
2023/10/25 21:59:11;;;;;;;0.60;0.60;;;15.10;45.20;;;;;;10388326;28;20686;-71
2023/10/25 22:04:35;;;;;;;2.07;0.60;;;15.10;44.40;;;;;;10389208;28;20236;-71
2023/10/25 22:09:39;;;;;;;0.50;0.50;;;15.20;44.50;;;;;;10394872;28;20237;-70
2023/10/25 22:14:44;;;;;;;0.50;0.50;;;15.20;44.50;;;;;;10394884;28;20316;-70
2023/10/25 22:19:47;;;;;;;1.87;0.60;;;15.20;44.60;;;;;;10391567;28;20570;-70
2023/10/25 22:24:51;;;;;;;0.80;0.70;;;15.20;44.50;;;;;;10390195;28;20233;-71
2023/10/25 22:29:56;;;;;;;0.83;0.50;;;15.20;44.50;;;;;;10399160;28;20328;-71
2023/10/25 22:34:59;;;;;;;0.80;0.70;;;15.20;44.50;;;;;;10392368;28;20605;-71
2023/10/25 22:40:04;;;;;;;0.60;0.50;;;15.30;44.60;;;;;;10398060;28;20248;-72
2023/10/25 22:45:09;;;;;;;0.70;0.70;;;15.20;44.00;;;;;;10398791;28;20221;-71
2023/10/25 22:50:12;;;;;;;0.87;0.50;;;15.20;43.90;;;;;;10394276;28;20221;-71
2023/10/25 22:55:15;;;;;;;1.20;0.60;;;15.30;44.00;;;;;;10397278;28;20609;-71
2023/10/25 23:00:20;;;;;;;1.13;0.70;;;15.30;43.90;;;;;;10391871;28;20223;-71
2023/10/25 23:05:24;;;;;;;0.70;0.70;;;15.30;43.50;;;;;;10394848;28;20236;-71
2023/10/25 23:10:28;;;;;;;0.70;0.70;;;15.30;43.50;;;;;;10395098;28;20288;-71
2023/10/25 23:15:36;;;;;;;0.83;0.70;;;15.30;43.50;;;;;;10392405;28;20229;-71
2023/10/25 23:20:39;;;;;;;1.17;0.67;;;15.40;43.20;;;;;;10394608;28;20230;-71
2023/10/25 23:25:42;;;;;;;1.07;0.60;;;15.40;43.20;;;;;;10395716;28;20303;-70
2023/10/25 23:30:47;;;;;;;0.93;0.50;;;15.40;43.20;;;;;;10393656;28;20312;-71
2023/10/25 23:36:00;;;;;;;0.67;0.67;;;15.40;43.00;;;;;;10391031;28;20604;-71
2023/10/25 23:41:03;;;;;;;0.90;0.60;;;15.40;42.70;;;;;;10392417;28;20262;-71
2023/10/25 23:46:08;;;;;;;0.80;0.80;;;15.40;43.10;;;;;;10396824;28;20230;-71
2023/10/25 23:51:11;;;;;;;1.20;0.70;;;15.30;43.10;;;;;;10395511;28;20424;-71
2023/10/25 23:56:14;;;;;;;0.70;0.70;;;15.30;43.40;;;;;;10387956;28;20244;-71
